createdAt,value
2022-08-08T00:10:01.962Z,7.22
2022-08-08T00:12:38.493Z,8.57
2022-08-08T00:15:55.849Z,7.68
2022-08-08T00:18:29.168Z,6.18
2022-08-08T00:21:00.681Z,9.40
2022-08-08T00:23:51.458Z,8.98
2022-08-08T00:26:33.272Z,8.35
2022-08-08T00:29:45.115Z,8.20
2022-08-08T00:32:34.237Z,6.00
2022-08-08T00:35:30.422Z,9.35
2022-08-08T00:38:06.983Z,9.73
2022-08-08T00:41:12.008Z,7.97
2022-08-08T00:43:59.290Z,6.75
2022-08-08T00:46:56.794Z,8.13
2022-08-08T00:52:38.937Z,7.53
2022-08-08T00:55:52.913Z,8.70
2022-08-08T00:58:39.232Z,8.25
2022-08-08T01:01:29.507Z,8.25
2022-08-08T01:04:20.597Z,11.02
2022-08-08T01:07:08.706Z,7.90
2022-08-08T01:10:06.813Z,9.00
2022-08-08T01:13:06.094Z,6.63
2022-08-08T01:40:14.738Z,6.72
2022-08-08T01:58:04.354Z,7.00
2022-08-08T02:00:48.482Z,6.32
2022-08-08T02:03:55.379Z,7.38
2022-08-08T02:10:02.421Z,6.18
2022-08-08T02:12:48.468Z,9.77
2022-08-08T02:15:34.967Z,6.72
2022-08-08T02:18:32.735Z,16.38
2022-08-08T02:21:21.288Z,6.05
2022-08-08T02:23:54.763Z,6.03
2022-08-08T02:26:31.097Z,6.28
2022-08-08T02:29:25.713Z,6.75
2022-08-08T02:32:22.827Z,6.57
2022-08-08T02:35:08.471Z,9.73
2022-08-08T02:37:58.363Z,9.05
2022-08-08T02:40:59.630Z,5.95
2022-08-08T02:44:38.945Z,6.32
2022-08-08T02:46:43.986Z,5.47
2022-08-08T02:49:50.635Z,10.13
2022-08-08T02:53:02.846Z,5.97
2022-08-08T02:59:05.747Z,7.40
2022-08-08T03:02:21.096Z,12.07
2022-08-08T03:08:26.848Z,7.78
2022-08-08T03:11:25.638Z,8.32
2022-08-08T03:16:01.579Z,8.27
2022-08-08T03:16:51.963Z,8.02
2022-08-08T03:19:27.128Z,7.50
2022-08-08T03:21:58.809Z,6.82
2022-08-08T03:24:31.707Z,7.75
2022-08-08T03:27:10.410Z,11.25
2022-08-08T03:29:55.580Z,7.88
2022-08-08T03:32:47.521Z,9.63
2022-08-08T03:35:22.236Z,9.13
2022-08-08T03:38:56.646Z,9.15
2022-08-08T03:40:52.551Z,10.07
2022-08-08T03:43:20.132Z,9.55
2022-08-08T03:46:05.066Z,7.60
2022-08-08T03:53:58.911Z,8.30
2022-08-08T03:56:33.368Z,8.63
2022-08-08T04:02:15.819Z,9.23
2022-08-08T04:04:30.826Z,8.27
2022-08-08T04:07:01.861Z,11.27
2022-08-08T04:09:59.002Z,8.55
2022-08-08T04:12:15.933Z,11.00
2022-08-08T04:14:45.279Z,11.82
2022-08-08T04:17:22.659Z,7.30
2022-08-08T04:19:58.624Z,10.75
2022-08-08T04:22:29.321Z,9.48
2022-08-08T04:28:01.362Z,9.00
2022-08-08T04:30:26.871Z,7.32
2022-08-08T04:32:54.660Z,10.02
2022-08-08T04:35:22.825Z,11.18
2022-08-08T04:40:30.413Z,7.30
2022-08-08T04:43:10.050Z,7.15
2022-08-08T04:45:37.409Z,17.60
2022-08-08T04:48:05.192Z,11.25
2022-08-08T04:50:40.142Z,12.80
2022-08-08T04:53:14.018Z,10.23
2022-08-08T04:58:38.149Z,15.50
2022-08-08T05:04:09.451Z,10.70
2022-08-08T05:06:31.842Z,14.18
2022-08-08T05:09:02.917Z,8.27
2022-08-08T05:11:39.640Z,8.80
2022-08-08T05:14:08.646Z,8.10
2022-08-08T05:16:52.411Z,8.50
2022-08-08T05:20:09.479Z,10.65
2022-08-08T05:22:12.711Z,11.55
2022-08-08T05:24:40.193Z,9.05
2022-08-08T05:27:08.054Z,10.13
2022-08-08T05:29:36.936Z,10.35
2022-08-08T05:32:08.961Z,6.15
2022-08-08T05:34:47.692Z,7.53
2022-08-08T05:40:09.265Z,12.20
2022-08-08T05:42:44.629Z,7.85
2022-08-08T05:45:25.684Z,6.63
2022-08-08T05:54:24.623Z,9.27
2022-08-08T05:59:05.142Z,10.25
2022-08-08T06:01:56.142Z,8.80
2022-08-08T06:04:27.064Z,8.38
2022-08-08T06:07:03.976Z,9.70
2022-08-08T06:10:00.533Z,6.35
2022-08-08T06:12:29.612Z,5.50
2022-08-08T06:15:16.065Z,7.45
2022-08-08T06:17:51.067Z,5.30
2022-08-08T06:20:29.922Z,7.93
2022-08-08T06:22:57.953Z,7.70
2022-08-08T06:26:35.307Z,5.88
2022-08-08T06:28:20.477Z,7.95
2022-08-08T06:31:01.912Z,8.43
2022-08-08T06:34:25.566Z,6.47
2022-08-08T06:36:53.852Z,6.57
2022-08-08T06:41:57.076Z,8.55
2022-08-08T06:44:33.098Z,7.50
2022-08-08T06:47:02.334Z,6.30
2022-08-08T06:52:18.785Z,7.53
2022-08-08T06:57:29.487Z,6.57
2022-08-08T07:02:53.856Z,4.40
2022-08-08T07:08:21.604Z,7.93
2022-08-08T07:11:01.430Z,8.20
2022-08-08T07:13:37.238Z,9.15
2022-08-08T07:16:15.666Z,9.00
2022-08-08T07:19:07.191Z,6.63
2022-08-08T07:24:54.183Z,6.88
2022-08-08T07:27:35.329Z,3.42
2022-08-08T07:30:16.803Z,11.90
2022-08-08T07:35:35.789Z,4.72
2022-08-08T07:38:04.664Z,6.95
2022-08-08T07:40:37.970Z,5.10
2022-08-08T07:43:09.412Z,5.40
2022-08-08T07:46:04.839Z,4.43
2022-08-08T07:48:23.722Z,6.60
2022-08-08T07:51:04.519Z,5.05
2022-08-08T07:54:00.896Z,7.70
2022-08-08T08:02:36.910Z,7.10
2022-08-08T08:04:49.415Z,3.05
2022-08-08T08:07:22.582Z,5.32
2022-08-08T08:09:54.513Z,4.45
2022-08-08T08:12:35.077Z,6.75
2022-08-08T08:15:08.284Z,5.95
2022-08-08T08:17:47.927Z,6.97
2022-08-08T08:20:18.081Z,5.25
2022-08-08T08:22:44.663Z,5.85
2022-08-08T08:25:16.986Z,3.55
2022-08-08T08:33:25.491Z,5.45
2022-08-08T08:38:49.473Z,3.50
2022-08-08T08:44:16.491Z,5.40
2022-08-08T08:46:58.835Z,4.78
2022-08-08T08:49:34.730Z,4.07
2022-08-08T08:52:03.825Z,3.38
2022-08-08T08:54:34.901Z,3.33
2022-08-08T08:57:03.547Z,4.32
2022-08-08T09:00:01.649Z,7.82
2022-08-08T09:02:31.235Z,5.03
2022-08-08T09:05:03.256Z,5.88
2022-08-08T09:10:17.776Z,4.28
2022-08-08T09:12:47.465Z,3.60
2022-08-08T09:21:58.546Z,4.13
2022-08-08T09:29:22.605Z,4.93
2022-08-08T09:32:12.104Z,3.60
2022-08-08T09:34:50.391Z,3.05
2022-08-08T09:37:39.537Z,2.90
2022-08-08T09:40:10.497Z,4.40
2022-08-08T09:42:51.567Z,3.20
2022-08-08T09:45:55.106Z,3.55
2022-08-08T09:48:43.001Z,2.70
2022-08-08T09:54:08.526Z,3.20
2022-08-08T09:56:46.359Z,3.17
2022-08-08T10:02:23.253Z,4.28
2022-08-08T10:04:58.924Z,3.30
2022-08-08T10:07:43.244Z,2.75
2022-08-08T10:12:53.742Z,2.78
2022-08-08T10:15:25.795Z,2.83
2022-08-08T10:18:05.285Z,1.33
2022-08-08T10:20:51.136Z,2.30
2022-08-08T10:23:44.095Z,2.50
2022-08-08T10:26:57.494Z,3.85
2022-08-08T10:29:59.217Z,4.53
2022-08-08T10:32:40.299Z,2.72
2022-08-08T10:35:20.431Z,1.10
2022-08-08T10:38:13.511Z,4.90
2022-08-08T10:43:23.791Z,5.13
2022-08-08T10:45:58.852Z,3.45
2022-08-08T10:51:31.041Z,1.40
2022-08-08T10:54:02.492Z,1.58
2022-08-08T10:56:36.336Z,1.83
2022-08-08T10:59:10.379Z,5.28
2022-08-08T11:01:46.441Z,4.10
2022-08-08T11:07:06.848Z,0.95
2022-08-08T11:09:34.284Z,2.38
2022-08-08T11:12:12.925Z,1.83
2022-08-08T11:15:05.796Z,1.73
2022-08-08T11:18:01.380Z,2.60
2022-08-08T11:20:29.554Z,3.28
2022-08-08T11:28:29.637Z,3.25
2022-08-08T11:31:00.194Z,1.90
2022-08-08T11:33:51.041Z,1.83
2022-08-08T11:36:16.521Z,4.10
2022-08-08T11:38:55.581Z,1.80
2022-08-08T11:41:33.928Z,1.52
2022-08-08T11:44:01.499Z,3.90
2022-08-08T11:51:51.887Z,4.50
2022-08-08T11:54:34.290Z,2.17
2022-08-08T12:00:07.582Z,2.55
2022-08-08T12:02:47.326Z,3.47
2022-08-08T12:05:14.477Z,1.65
2022-08-08T12:13:09.452Z,1.80
2022-08-08T12:18:30.503Z,2.40
2022-08-08T12:20:58.866Z,3.10
2022-08-08T12:23:43.003Z,2.30
2022-08-08T12:26:27.748Z,2.80
2022-08-08T12:29:03.268Z,1.63
2022-08-08T12:31:53.910Z,3.25
2022-08-08T12:37:39.922Z,3.00
2022-08-08T12:48:37.039Z,1.75
2022-08-08T12:51:05.635Z,1.52
2022-08-08T12:53:42.036Z,2.45
2022-08-08T12:58:53.901Z,1.88
2022-08-08T13:01:24.469Z,3.05
2022-08-08T13:04:19.357Z,2.38
2022-08-08T13:07:11.851Z,2.35
2022-08-08T13:10:05.207Z,2.80
2022-08-08T13:12:46.598Z,2.22
2022-08-08T13:18:10.974Z,3.40
2022-08-08T13:23:36.612Z,3.75
2022-08-08T13:31:32.067Z,3.22
2022-08-08T13:34:11.784Z,2.67
2022-08-08T13:39:31.758Z,3.67
2022-08-08T13:42:01.417Z,5.72
2022-08-08T13:44:35.154Z,3.00
2022-08-08T13:47:06.996Z,3.50
2022-08-08T13:58:06.884Z,2.70
2022-08-08T14:06:33.412Z,2.05
2022-08-08T14:08:57.716Z,1.13
2022-08-08T14:11:30.677Z,2.80
2022-08-08T14:17:02.150Z,2.72
2022-08-08T14:19:57.149Z,2.88
2022-08-08T14:28:08.504Z,1.67
2022-08-08T14:30:50.015Z,2.47
2022-08-08T14:33:36.519Z,1.58
2022-08-08T14:36:05.915Z,2.35
2022-08-08T14:38:51.785Z,2.30
2022-08-08T14:41:53.312Z,2.38
2022-08-08T14:44:17.095Z,2.08
2022-08-08T14:46:46.431Z,1.10
2022-08-08T14:54:50.596Z,0.82
2022-08-08T15:05:42.794Z,1.58
2022-08-08T15:08:22.160Z,3.25
2022-08-08T15:11:00.573Z,2.00
2022-08-08T15:13:27.183Z,2.92
2022-08-08T15:16:14.992Z,2.15
2022-08-08T15:18:51.260Z,1.80
2022-08-08T15:24:03.176Z,1.20
2022-08-08T15:29:12.446Z,1.85
2022-08-08T15:34:31.695Z,2.00
2022-08-08T15:39:40.662Z,5.35
2022-08-08T15:44:55.855Z,3.22
2022-08-08T15:50:19.470Z,2.85
2022-08-08T15:52:47.071Z,1.15
2022-08-08T15:55:21.474Z,3.30
2022-08-08T15:57:48.054Z,3.33
2022-08-08T16:00:27.085Z,1.08
2022-08-08T16:02:55.683Z,1.60
2022-08-08T16:13:03.642Z,8.55
2022-08-08T16:16:17.930Z,0.77
2022-08-08T16:18:56.910Z,2.13
2022-08-08T16:24:13.673Z,3.28
2022-08-08T16:32:03.014Z,3.13
2022-08-08T16:34:50.295Z,2.53
2022-08-08T16:37:16.884Z,1.27
2022-08-08T16:40:02.278Z,1.58
2022-08-08T16:42:29.971Z,1.33
2022-08-08T16:50:20.004Z,2.67
2022-08-08T16:55:23.082Z,2.63
2022-08-08T16:55:52.124Z,5.20
2022-08-08T16:58:25.744Z,3.85
2022-08-08T17:00:55.001Z,2.42
2022-08-08T17:03:25.118Z,0.55
2022-08-08T17:08:52.511Z,6.28
2022-08-08T17:11:19.948Z,2.10
2022-08-08T17:16:28.551Z,1.83
2022-08-08T17:19:03.175Z,1.48
2022-08-08T17:29:56.600Z,1.08
2022-08-08T17:32:29.079Z,4.47
2022-08-08T17:35:55.370Z,4.03
2022-08-08T17:38:08.304Z,1.80
2022-08-08T17:40:37.722Z,2.13
2022-08-08T17:43:04.442Z,3.25
2022-08-08T17:45:32.883Z,1.55
2022-08-08T17:48:03.481Z,1.52
2022-08-08T17:50:42.064Z,2.60
2022-08-08T17:53:10.828Z,2.05
2022-08-08T17:56:05.085Z,2.65
2022-08-08T17:58:27.576Z,2.83
2022-08-08T18:00:57.184Z,1.88
2022-08-08T18:03:24.049Z,1.73
2022-08-08T18:08:25.349Z,3.90
2022-08-08T18:11:04.937Z,1.92
2022-08-08T18:13:35.096Z,3.42
2022-08-08T18:16:09.188Z,1.48
2022-08-08T18:18:39.130Z,3.28
2022-08-08T18:21:10.794Z,2.55
2022-08-08T18:26:40.473Z,3.90
2022-08-08T18:29:15.358Z,2.45
2022-08-08T18:31:42.144Z,2.20
2022-08-08T18:34:11.946Z,2.67
2022-08-08T18:36:54.859Z,4.57
2022-08-08T18:39:28.541Z,3.83
2022-08-08T18:42:03.286Z,2.08
2022-08-08T18:44:33.061Z,3.28
2022-08-08T18:47:03.319Z,2.28
2022-08-08T18:49:32.367Z,4.40
2022-08-08T18:52:08.667Z,3.40
2022-08-08T18:54:45.553Z,6.57
2022-08-08T19:00:10.677Z,2.33
2022-08-08T19:02:56.869Z,2.58
2022-08-08T19:05:30.675Z,3.42
2022-08-08T19:08:34.144Z,3.15
2022-08-08T19:11:02.172Z,2.00
2022-08-08T19:13:38.243Z,4.97
2022-08-08T19:16:19.269Z,4.05
2022-08-08T19:18:53.097Z,3.60
2022-08-08T19:21:32.917Z,2.92
2022-08-08T19:23:59.834Z,5.57
2022-08-08T19:26:31.015Z,3.40
2022-08-08T19:28:59.555Z,5.00
2022-08-08T19:31:31.904Z,3.35
2022-08-08T19:34:36.025Z,3.88
2022-08-08T19:36:55.034Z,4.18
2022-08-08T19:39:22.929Z,4.05
2022-08-08T19:41:50.445Z,5.82
2022-08-08T19:44:42.439Z,3.00
2022-08-08T19:47:04.453Z,3.78
2022-08-08T19:49:36.692Z,2.65
2022-08-08T19:52:06.104Z,3.85
2022-08-08T19:54:33.643Z,4.82
2022-08-08T19:57:04.170Z,3.22
2022-08-08T19:59:35.423Z,3.23
2022-08-08T20:02:04.181Z,3.42
2022-08-08T20:04:33.206Z,10.20
2022-08-08T20:08:27.097Z,7.30
2022-08-08T20:09:55.456Z,5.90
2022-08-08T20:12:32.290Z,5.28
2022-08-08T20:15:02.689Z,5.32
2022-08-08T20:17:41.985Z,4.50
2022-08-08T20:20:11.119Z,6.00
2022-08-08T20:22:40.679Z,4.95
2022-08-08T20:25:14.374Z,5.78
2022-08-08T20:27:50.263Z,9.50
2022-08-08T20:30:53.096Z,5.60
2022-08-08T20:33:18.489Z,4.22
2022-08-08T20:35:58.471Z,4.82
2022-08-08T20:38:32.229Z,4.45
2022-08-08T20:43:49.397Z,3.90
2022-08-08T20:46:20.810Z,6.05
2022-08-08T20:48:49.103Z,6.32
2022-08-08T20:53:59.887Z,4.55
2022-08-08T20:56:35.823Z,6.18
2022-08-08T20:59:05.854Z,4.35
2022-08-08T21:01:33.641Z,4.68
2022-08-08T21:04:23.167Z,6.57
2022-08-08T21:06:53.288Z,4.40
2022-08-08T21:09:21.639Z,4.30
2022-08-08T21:11:51.450Z,7.85
2022-08-08T21:14:30.433Z,5.20
2022-08-08T21:17:03.220Z,7.05
2022-08-08T21:19:44.418Z,5.05
2022-08-08T21:22:14.301Z,3.30
2022-08-08T21:24:42.116Z,5.85
2022-08-08T21:28:05.179Z,6.43
2022-08-08T21:30:17.847Z,4.43
2022-08-08T21:32:52.113Z,5.93
2022-08-08T21:36:15.142Z,3.70
2022-08-08T21:38:08.478Z,8.82
2022-08-08T21:40:55.887Z,4.85
2022-08-08T21:43:33.432Z,5.85
2022-08-08T21:48:00.588Z,3.80
2022-08-08T21:49:12.515Z,5.15
2022-08-08T21:54:53.640Z,6.22
2022-08-08T21:57:11.819Z,3.90
2022-08-08T22:00:02.276Z,5.30
2022-08-08T22:02:25.698Z,3.75
2022-08-08T22:04:55.725Z,6.68
2022-08-08T22:07:26.102Z,8.02
2022-08-08T22:10:09.196Z,4.05
2022-08-08T22:12:36.278Z,5.07
2022-08-08T22:15:04.285Z,3.55
2022-08-08T22:17:41.532Z,5.65
2022-08-08T22:20:18.807Z,5.55
2022-08-08T22:26:20.039Z,4.25
2022-08-08T22:29:05.016Z,4.43
2022-08-08T22:31:08.039Z,4.75
2022-08-08T22:34:13.772Z,3.85
2022-08-08T22:36:32.253Z,4.75
2022-08-08T22:39:01.145Z,4.15
2022-08-08T22:41:33.518Z,4.50
2022-08-08T22:44:06.018Z,3.58
2022-08-08T22:46:34.442Z,5.03
2022-08-08T22:49:06.074Z,5.90
2022-08-08T22:51:35.003Z,3.95
2022-08-08T22:54:32.638Z,5.53
2022-08-08T22:56:55.393Z,3.38
2022-08-08T22:59:21.974Z,4.80
2022-08-08T23:02:02.400Z,5.45
2022-08-08T23:04:33.541Z,4.25
2022-08-08T23:07:03.055Z,3.45
2022-08-08T23:09:31.070Z,4.00
2022-08-08T23:12:28.047Z,4.80
2022-08-08T23:14:53.536Z,4.38
2022-08-08T23:17:30.067Z,4.43
2022-08-08T23:19:56.789Z,5.60
2022-08-08T23:22:23.535Z,5.53
2022-08-08T23:24:50.735Z,4.53
2022-08-08T23:27:37.529Z,3.10
2022-08-08T23:30:09.474Z,3.35
2022-08-08T23:32:36.156Z,3.97
2022-08-08T23:35:12.666Z,5.30
2022-08-08T23:38:01.919Z,3.15
2022-08-08T23:40:30.317Z,7.00
2022-08-08T23:43:02.840Z,3.20
2022-08-08T23:49:04.028Z,3.88
2022-08-08T23:49:04.763Z,3.40
2022-08-08T23:51:12.695Z,3.35
2022-08-08T23:54:38.969Z,3.78
2022-08-08T23:56:52.181Z,3.28
2022-08-08T23:59:20.163Z,4.32
